createdAt,value
2017-11-21T00:00:01.873Z,9.10
2017-11-21T00:02:30.102Z,9.10
2017-11-21T00:04:59.128Z,9.20
2017-11-21T00:07:27.470Z,9.20
2017-11-21T00:09:55.709Z,9.20
2017-11-21T00:12:24.791Z,9.20
2017-11-21T00:14:53.101Z,9.20
2017-11-21T00:17:21.356Z,9.20
2017-11-21T00:19:49.595Z,9.20
2017-11-21T00:22:29.732Z,9.30
2017-11-21T00:24:58.753Z,9.20
2017-11-21T00:27:27.030Z,9.20
2017-11-21T00:29:55.295Z,9.30
2017-11-21T00:32:23.534Z,9.30
2017-11-21T00:34:51.812Z,9.40
2017-11-21T00:37:20.074Z,9.40
2017-11-21T00:39:48.380Z,9.50
2017-11-21T00:42:16.627Z,9.50
2017-11-21T00:44:44.855Z,9.50
2017-11-21T00:47:13.120Z,9.50
2017-11-21T00:49:41.348Z,9.50
2017-11-21T00:52:09.602Z,9.50
2017-11-21T00:54:37.881Z,9.60
2017-11-21T00:57:06.136Z,9.70
2017-11-21T00:59:34.405Z,9.60
2017-11-21T01:02:03.412Z,9.60
2017-11-21T01:04:31.653Z,9.60
2017-11-21T01:07:00.674Z,9.60
2017-11-21T01:09:28.943Z,9.60
2017-11-21T01:11:57.949Z,9.60
2017-11-21T01:14:26.188Z,9.60
2017-11-21T01:16:54.432Z,9.70
2017-11-21T01:19:22.669Z,9.70
2017-11-21T01:21:51.674Z,9.70
2017-11-21T01:24:20.711Z,9.80
2017-11-21T01:26:48.957Z,9.70
2017-11-21T01:29:17.985Z,9.80
2017-11-21T01:31:46.224Z,9.80
2017-11-21T01:34:14.467Z,9.90
2017-11-21T01:36:43.533Z,9.80
2017-11-21T01:39:11.775Z,9.80
2017-11-21T01:41:39.995Z,9.80
2017-11-21T01:44:08.254Z,9.70
2017-11-21T01:46:36.531Z,9.70
2017-11-21T01:49:04.800Z,9.80
2017-11-21T01:51:33.023Z,9.80
2017-11-21T01:54:01.268Z,9.80
2017-11-21T01:56:29.502Z,9.70
2017-11-21T01:58:58.522Z,9.80
2017-11-21T02:01:26.775Z,9.80
2017-11-21T02:03:55.028Z,9.80
2017-11-21T02:06:24.060Z,9.80
2017-11-21T02:08:52.290Z,9.80
2017-11-21T02:11:20.547Z,9.80
2017-11-21T02:13:48.818Z,9.80
2017-11-21T02:16:17.051Z,9.90
2017-11-21T02:18:46.077Z,9.90
2017-11-21T02:21:14.803Z,9.90
2017-11-21T02:23:43.124Z,9.90
2017-11-21T02:26:11.422Z,9.90
2017-11-21T02:28:39.676Z,9.90
2017-11-21T02:31:07.949Z,10.00
2017-11-21T02:33:36.275Z,10.00
2017-11-21T02:36:04.577Z,10.10
2017-11-21T02:38:33.623Z,10.10
2017-11-21T02:41:01.892Z,10.00
2017-11-21T02:43:30.164Z,10.10
2017-11-21T02:45:58.413Z,10.10
2017-11-21T02:48:27.452Z,10.10
2017-11-21T02:50:55.725Z,10.10
2017-11-21T02:53:23.979Z,10.20
2017-11-21T02:55:52.251Z,10.20
2017-11-21T02:58:21.132Z,10.20
2017-11-21T03:00:50.165Z,10.20
2017-11-21T03:03:18.450Z,10.20
2017-11-21T03:05:46.704Z,10.20
2017-11-21T03:08:14.980Z,10.20
2017-11-21T03:10:43.240Z,10.20
2017-11-21T03:13:12.243Z,10.20
2017-11-21T03:15:41.269Z,10.20
2017-11-21T03:18:09.503Z,10.20
2017-11-21T03:20:50.386Z,10.30
2017-11-21T03:23:31.271Z,10.30
2017-11-21T03:26:09.433Z,10.30
2017-11-21T03:28:38.652Z,10.30
2017-11-21T03:31:07.678Z,10.30
2017-11-21T03:33:35.985Z,10.30
2017-11-21T03:36:04.232Z,10.30
2017-11-21T03:38:32.495Z,10.30
2017-11-21T03:41:00.791Z,10.30
2017-11-21T03:43:29.040Z,10.30
2017-11-21T03:45:58.097Z,10.40
2017-11-21T03:48:26.349Z,10.40
2017-11-21T03:50:54.608Z,10.40
2017-11-21T03:53:22.867Z,10.50
2017-11-21T03:55:51.911Z,10.40
2017-11-21T03:58:20.708Z,10.40
2017-11-21T04:00:53.812Z,10.40
2017-11-21T04:03:22.080Z,10.40
2017-11-21T04:05:50.339Z,10.40
2017-11-21T04:08:18.592Z,10.50
2017-11-21T04:10:47.586Z,10.50
2017-11-21T04:13:15.852Z,10.50
2017-11-21T04:15:44.119Z,10.50
2017-11-21T04:18:13.729Z,10.40
2017-11-21T04:20:41.958Z,10.30
2017-11-21T04:23:10.206Z,10.40
2017-11-21T04:25:39.251Z,10.40
2017-11-21T04:28:07.534Z,10.40
2017-11-21T04:30:35.782Z,10.40
2017-11-21T04:33:04.071Z,10.50
2017-11-21T04:35:32.301Z,10.50
2017-11-21T04:38:00.591Z,10.40
2017-11-21T04:40:28.860Z,10.40
2017-11-21T04:42:57.875Z,10.40
2017-11-21T04:45:26.152Z,10.30
2017-11-21T04:47:54.403Z,10.30
2017-11-21T04:50:23.439Z,10.40
2017-11-21T04:52:51.719Z,10.30
2017-11-21T04:55:19.979Z,10.40
2017-11-21T04:57:48.269Z,10.40
2017-11-21T05:00:16.542Z,10.40
2017-11-21T05:02:44.840Z,10.40
2017-11-21T05:05:13.127Z,10.40
2017-11-21T05:07:42.151Z,10.40
2017-11-21T05:10:11.172Z,10.50
2017-11-21T05:12:39.452Z,10.50
2017-11-21T05:15:07.690Z,10.50
2017-11-21T05:17:36.735Z,10.50
2017-11-21T05:20:05.017Z,10.50
2017-11-21T05:22:33.268Z,10.60
2017-11-21T05:25:01.573Z,10.50
2017-11-21T05:27:29.847Z,10.60
2017-11-21T05:29:58.093Z,10.60
2017-11-21T05:32:39.044Z,10.60
2017-11-21T05:35:07.313Z,10.60
2017-11-21T05:37:35.561Z,10.70
2017-11-21T05:40:04.755Z,10.70
2017-11-21T05:42:33.073Z,10.70
2017-11-21T05:45:01.337Z,10.70
2017-11-21T05:47:29.646Z,10.70
2017-11-21T05:49:58.726Z,10.70
2017-11-21T05:52:27.800Z,10.70
2017-11-21T05:54:56.063Z,10.60
2017-11-21T05:57:24.320Z,10.70
2017-11-21T05:59:52.635Z,10.70
2017-11-21T06:02:21.684Z,10.70
2017-11-21T06:04:49.971Z,10.70
2017-11-21T06:07:18.243Z,10.70
2017-11-21T06:09:46.561Z,10.70
2017-11-21T06:12:14.812Z,10.80
2017-11-21T06:14:43.087Z,10.80
2017-11-21T06:17:11.372Z,10.70
2017-11-21T06:19:39.695Z,10.60
2017-11-21T06:22:07.980Z,10.50
2017-11-21T06:24:36.221Z,10.60
2017-11-21T06:27:04.464Z,10.60
2017-11-21T06:29:32.769Z,10.70
2017-11-21T06:32:01.015Z,10.70
2017-11-21T06:34:29.274Z,10.70
2017-11-21T06:36:58.292Z,10.70
2017-11-21T06:39:26.543Z,10.70
2017-11-21T06:41:55.611Z,10.70
2017-11-21T06:44:23.875Z,10.70
2017-11-21T06:46:52.141Z,10.70
2017-11-21T06:49:20.383Z,10.70
2017-11-21T06:51:48.643Z,10.70
2017-11-21T06:54:17.015Z,10.70
2017-11-21T06:56:46.068Z,10.60
2017-11-21T06:59:14.326Z,10.60
2017-11-21T07:01:42.596Z,10.60
2017-11-21T07:04:10.890Z,10.60
2017-11-21T07:06:39.188Z,10.60
2017-11-21T07:09:07.511Z,10.70
2017-11-21T07:11:36.134Z,10.70
2017-11-21T07:14:04.371Z,10.80
2017-11-21T07:16:33.400Z,10.80
2017-11-21T07:19:01.641Z,10.80
2017-11-21T07:21:30.688Z,10.80
2017-11-21T07:23:58.983Z,10.80
2017-11-21T07:26:27.256Z,10.80
2017-11-21T07:28:55.514Z,10.80
2017-11-21T07:31:23.762Z,10.80
2017-11-21T07:33:52.771Z,10.80
2017-11-21T07:36:21.068Z,10.80
2017-11-21T07:38:49.314Z,10.80
2017-11-21T07:41:18.326Z,10.80
2017-11-21T07:43:46.589Z,10.70
2017-11-21T07:46:15.666Z,10.70
2017-11-21T07:48:44.043Z,10.70
2017-11-21T07:51:12.312Z,10.70
2017-11-21T07:53:40.569Z,10.80
2017-11-21T07:56:08.820Z,10.80
2017-11-21T07:58:37.085Z,10.80
2017-11-21T08:01:05.344Z,10.80
2017-11-21T08:03:34.385Z,10.70
2017-11-21T08:06:03.446Z,10.70
2017-11-21T08:08:31.775Z,10.70
2017-11-21T08:11:00.027Z,10.80
2017-11-21T08:13:28.665Z,10.70
2017-11-21T08:15:56.947Z,10.70
2017-11-21T08:18:25.994Z,10.80
2017-11-21T08:20:54.258Z,10.80
2017-11-21T08:23:22.683Z,10.80
2017-11-21T08:25:50.935Z,10.90
2017-11-21T08:28:19.180Z,10.90
2017-11-21T08:30:47.449Z,10.90
2017-11-21T08:33:15.733Z,11.00
2017-11-21T08:35:44.773Z,11.00
2017-11-21T08:38:13.052Z,11.00
2017-11-21T08:40:41.340Z,11.00
2017-11-21T08:43:10.416Z,11.00
2017-11-21T08:45:38.694Z,11.00
2017-11-21T08:48:07.002Z,11.00
2017-11-21T08:50:36.047Z,11.00
2017-11-21T08:53:04.332Z,11.00
2017-11-21T08:55:32.571Z,11.00
2017-11-21T08:58:00.835Z,11.00
2017-11-21T09:00:29.139Z,11.10
2017-11-21T09:02:57.395Z,11.20
2017-11-21T09:05:26.443Z,11.20
2017-11-21T09:07:54.750Z,11.20
2017-11-21T09:10:22.995Z,11.20
2017-11-21T09:12:51.234Z,11.20
2017-11-21T09:15:19.500Z,11.20
2017-11-21T09:17:47.762Z,11.20
2017-11-21T19:58:09.063Z,9.80
2017-11-21T20:00:37.737Z,9.90
2017-11-21T20:03:06.923Z,10.00
2017-11-21T20:05:36.899Z,10.00
2017-11-21T20:08:05.339Z,10.00
2017-11-21T20:10:34.092Z,9.90
2017-11-21T20:13:03.367Z,9.80
2017-11-21T20:15:32.601Z,9.80
2017-11-21T20:18:00.881Z,9.80
2017-11-21T20:20:32.143Z,9.70
2017-11-21T20:23:01.998Z,9.80
2017-11-21T20:25:30.331Z,9.70
2017-11-21T20:28:00.144Z,9.70
2017-11-21T20:30:28.731Z,9.70
2017-11-21T20:32:57.824Z,9.70
2017-11-21T20:35:29.774Z,9.70
2017-11-21T20:37:59.260Z,9.70
2017-11-21T20:40:27.733Z,9.70
2017-11-21T20:42:57.779Z,9.60
2017-11-21T20:45:26.154Z,9.70
2017-11-21T20:47:54.627Z,9.70
2017-11-21T20:50:24.207Z,9.50
2017-11-21T20:52:52.481Z,9.50
2017-11-21T20:55:20.787Z,9.50
2017-11-21T20:57:49.208Z,9.60
2017-11-21T21:00:19.018Z,9.50
2017-11-21T21:02:47.687Z,9.50
2017-11-21T21:05:16.889Z,9.50
2017-11-21T21:07:45.239Z,9.50
2017-11-21T21:10:13.606Z,9.50
2017-11-21T21:12:42.876Z,9.50
2017-11-21T21:15:12.009Z,9.70
2017-11-21T21:17:40.632Z,9.70
2017-11-21T21:20:09.518Z,9.70
2017-11-21T21:22:37.887Z,9.60
2017-11-21T21:25:06.165Z,9.60
2017-11-21T21:27:42.311Z,9.60
2017-11-21T21:30:11.435Z,9.60
2017-11-21T21:32:39.764Z,9.60
2017-11-21T21:35:08.083Z,9.70
2017-11-21T21:37:36.375Z,9.70
2017-11-21T21:40:04.841Z,9.70
2017-11-21T21:42:33.711Z,9.80
2017-11-21T21:45:02.021Z,9.70
2017-11-21T21:47:30.269Z,9.70
2017-11-21T21:49:59.056Z,9.80
2017-11-21T21:52:27.704Z,9.80
2017-11-21T21:54:56.733Z,9.70
2017-11-21T21:57:25.071Z,9.80
2017-11-21T21:59:53.286Z,9.70
2017-11-21T22:02:21.572Z,9.70
2017-11-21T22:04:49.855Z,9.70
2017-11-21T22:07:18.143Z,9.70
2017-11-21T22:09:47.206Z,9.60
2017-11-21T22:12:15.817Z,9.60
2017-11-21T22:14:44.110Z,9.60
2017-11-21T22:17:12.996Z,9.60
2017-11-21T22:19:41.952Z,9.60
2017-11-21T22:22:10.197Z,9.60
2017-11-21T22:24:38.502Z,9.60
2017-11-21T22:27:06.766Z,9.50
2017-11-21T22:29:35.063Z,9.50
2017-11-21T22:32:03.306Z,9.50
2017-11-21T22:34:31.567Z,9.60
2017-11-21T22:36:59.859Z,9.60
2017-11-21T22:39:28.449Z,9.50
2017-11-21T22:41:56.733Z,9.50
2017-11-21T22:44:24.991Z,9.50
2017-11-21T22:46:54.020Z,9.50
2017-11-21T22:49:22.342Z,9.50
2017-11-21T22:51:50.596Z,9.50
2017-11-21T22:54:18.876Z,9.50
2017-11-21T22:56:47.171Z,9.50
2017-11-21T22:59:15.401Z,9.50
2017-11-21T23:01:43.873Z,9.50
2017-11-21T23:04:14.008Z,9.40
2017-11-21T23:06:42.272Z,9.40
2017-11-21T23:09:10.554Z,9.50
2017-11-21T23:11:39.560Z,9.50
2017-11-21T23:14:07.876Z,9.50
2017-11-21T23:16:36.143Z,9.50
2017-11-21T23:19:04.404Z,9.50
2017-11-21T23:21:32.742Z,9.40
2017-11-21T23:24:01.019Z,9.40
2017-11-21T23:26:29.260Z,9.30
2017-11-21T23:28:57.594Z,9.30
2017-11-21T23:31:25.912Z,9.30
2017-11-21T23:33:54.200Z,9.30
2017-11-21T23:36:22.459Z,9.30
2017-11-21T23:38:50.693Z,9.30
2017-11-21T23:41:19.718Z,9.30
2017-11-21T23:43:48.725Z,9.30
2017-11-21T23:46:16.980Z,9.30
2017-11-21T23:48:45.261Z,9.40
2017-11-21T23:51:14.284Z,9.30
2017-11-21T23:53:42.541Z,9.30
2017-11-21T23:56:10.762Z,9.30
2017-11-21T23:58:39.007Z,9.20
